sensor_id;sensor_type;location;lat;lon;timestamp;P1;durP1;ratioP1;P2;durP2;ratioP2
17818;SDS011;9034;50.284;19.310;2022-11-20T00:00:53;128.38;;;52.60;;
17818;SDS011;9034;50.284;19.310;2022-11-20T00:01:57;135.05;;;54.35;;
17818;SDS011;9034;50.284;19.310;2022-11-20T00:03:00;142.43;;;53.25;;
17818;SDS011;9034;50.284;19.310;2022-11-20T00:04:04;131.57;;;52.55;;
17818;SDS011;9034;50.284;19.310;2022-11-20T00:05:07;130.18;;;52.08;;
17818;SDS011;9034;50.284;19.310;2022-11-20T00:06:12;127.72;;;52.50;;
17818;SDS011;9034;50.284;19.310;2022-11-20T00:07:16;145.32;;;52.55;;
17818;SDS011;9034;50.284;19.310;2022-11-20T00:08:20;134.10;;;54.53;;
17818;SDS011;9034;50.284;19.310;2022-11-20T00:09:22;133.98;;;52.15;;
17818;SDS011;9034;50.284;19.310;2022-11-20T00:10:26;140.23;;;53.53;;
17818;SDS011;9034;50.284;19.310;2022-11-20T00:11:29;137.98;;;51.92;;
17818;SDS011;9034;50.284;19.310;2022-11-20T00:12:34;111.32;;;44.78;;
17818;SDS011;9034;50.284;19.310;2022-11-20T00:13:37;124.00;;;48.85;;
17818;SDS011;9034;50.284;19.310;2022-11-20T00:14:41;114.65;;;45.55;;
17818;SDS011;9034;50.284;19.310;2022-11-20T00:15:45;107.00;;;43.88;;
17818;SDS011;9034;50.284;19.310;2022-11-20T00:16:49;122.75;;;47.42;;
17818;SDS011;9034;50.284;19.310;2022-11-20T00:17:52;115.85;;;46.95;;
17818;SDS011;9034;50.284;19.310;2022-11-20T00:18:55;112.25;;;46.22;;
17818;SDS011;9034;50.284;19.310;2022-11-20T00:19:59;112.35;;;45.95;;
17818;SDS011;9034;50.284;19.310;2022-11-20T00:21:02;115.55;;;44.53;;
17818;SDS011;9034;50.284;19.310;2022-11-20T00:22:06;113.03;;;43.30;;
17818;SDS011;9034;50.284;19.310;2022-11-20T00:23:09;99.15;;;42.25;;
17818;SDS011;9034;50.284;19.310;2022-11-20T00:24:12;116.18;;;42.65;;
17818;SDS011;9034;50.284;19.310;2022-11-20T00:25:15;110.38;;;44.50;;
17818;SDS011;9034;50.284;19.310;2022-11-20T00:26:19;118.30;;;47.63;;
17818;SDS011;9034;50.284;19.310;2022-11-20T00:27:23;104.72;;;45.15;;
17818;SDS011;9034;50.284;19.310;2022-11-20T00:28:27;104.68;;;44.50;;
17818;SDS011;9034;50.284;19.310;2022-11-20T00:29:29;107.05;;;43.40;;
17818;SDS011;9034;50.284;19.310;2022-11-20T00:30:33;103.10;;;44.28;;
17818;SDS011;9034;50.284;19.310;2022-11-20T00:31:36;121.07;;;45.42;;
17818;SDS011;9034;50.284;19.310;2022-11-20T00:32:41;123.82;;;47.63;;
17818;SDS011;9034;50.284;19.310;2022-11-20T00:33:44;109.70;;;41.88;;
17818;SDS011;9034;50.284;19.310;2022-11-20T00:34:48;107.05;;;40.88;;
17818;SDS011;9034;50.284;19.310;2022-11-20T00:35:51;109.43;;;41.15;;
17818;SDS011;9034;50.284;19.310;2022-11-20T00:36:54;103.22;;;40.60;;
17818;SDS011;9034;50.284;19.310;2022-11-20T00:37:57;109.50;;;44.30;;
17818;SDS011;9034;50.284;19.310;2022-11-20T00:39:01;122.97;;;44.55;;
17818;SDS011;9034;50.284;19.310;2022-11-20T00:40:04;118.63;;;43.95;;
17818;SDS011;9034;50.284;19.310;2022-11-20T00:41:09;116.72;;;45.88;;
17818;SDS011;9034;50.284;19.310;2022-11-20T00:42:13;121.15;;;46.22;;
17818;SDS011;9034;50.284;19.310;2022-11-20T00:43:17;120.90;;;47.55;;
17818;SDS011;9034;50.284;19.310;2022-11-20T00:44:20;151.52;;;57.47;;
17818;SDS011;9034;50.284;19.310;2022-11-20T00:45:23;161.32;;;58.13;;
17818;SDS011;9034;50.284;19.310;2022-11-20T00:46:26;124.32;;;47.90;;
17818;SDS011;9034;50.284;19.310;2022-11-20T00:47:31;135.65;;;51.38;;
17818;SDS011;9034;50.284;19.310;2022-11-20T00:48:35;108.25;;;45.38;;
17818;SDS011;9034;50.284;19.310;2022-11-20T00:49:39;111.78;;;45.40;;
17818;SDS011;9034;50.284;19.310;2022-11-20T00:50:41;128.40;;;49.33;;
17818;SDS011;9034;50.284;19.310;2022-11-20T00:51:45;114.72;;;46.38;;
17818;SDS011;9034;50.284;19.310;2022-11-20T00:52:48;122.82;;;47.47;;
17818;SDS011;9034;50.284;19.310;2022-11-20T00:53:52;127.13;;;48.95;;
17818;SDS011;9034;50.284;19.310;2022-11-20T00:54:57;128.88;;;50.20;;
17818;SDS011;9034;50.284;19.310;2022-11-20T00:56:01;133.32;;;54.75;;
17818;SDS011;9034;50.284;19.310;2022-11-20T00:57:04;145.20;;;52.17;;
17818;SDS011;9034;50.284;19.310;2022-11-20T00:58:08;135.85;;;53.53;;
17818;SDS011;9034;50.284;19.310;2022-11-20T00:59:15;128.68;;;53.72;;
17818;SDS011;9034;50.284;19.310;2022-11-20T01:00:19;138.75;;;50.92;;
17818;SDS011;9034;50.284;19.310;2022-11-20T01:01:22;133.90;;;51.63;;
17818;SDS011;9034;50.284;19.310;2022-11-20T01:02:27;134.55;;;52.25;;
17818;SDS011;9034;50.284;19.310;2022-11-20T01:03:30;138.50;;;52.47;;
17818;SDS011;9034;50.284;19.310;2022-11-20T01:04:36;136.68;;;51.53;;
17818;SDS011;9034;50.284;19.310;2022-11-20T01:05:40;129.40;;;52.40;;
17818;SDS011;9034;50.284;19.310;2022-11-20T01:06:42;136.27;;;50.90;;
17818;SDS011;9034;50.284;19.310;2022-11-20T01:07:46;120.15;;;48.40;;
17818;SDS011;9034;50.284;19.310;2022-11-20T01:08:50;123.95;;;50.67;;
17818;SDS011;9034;50.284;19.310;2022-11-20T01:09:55;129.98;;;50.40;;
17818;SDS011;9034;50.284;19.310;2022-11-20T01:11:01;129.95;;;50.67;;
17818;SDS011;9034;50.284;19.310;2022-11-20T01:12:05;131.52;;;50.33;;
17818;SDS011;9034;50.284;19.310;2022-11-20T01:13:09;143.25;;;49.80;;
17818;SDS011;9034;50.284;19.310;2022-11-20T01:14:30;121.97;;;46.15;;
17818;SDS011;9034;50.284;19.310;2022-11-20T01:15:34;105.22;;;44.67;;
17818;SDS011;9034;50.284;19.310;2022-11-20T01:16:39;98.13;;;42.13;;
17818;SDS011;9034;50.284;19.310;2022-11-20T01:17:43;111.28;;;45.50;;
17818;SDS011;9034;50.284;19.310;2022-11-20T01:18:46;101.38;;;41.13;;
17818;SDS011;9034;50.284;19.310;2022-11-20T01:19:52;113.47;;;42.08;;
17818;SDS011;9034;50.284;19.310;2022-11-20T01:20:55;106.95;;;40.65;;
17818;SDS011;9034;50.284;19.310;2022-11-20T01:21:59;108.07;;;45.65;;
17818;SDS011;9034;50.284;19.310;2022-11-20T01:23:03;111.55;;;47.40;;
17818;SDS011;9034;50.284;19.310;2022-11-20T01:24:07;116.88;;;44.53;;
17818;SDS011;9034;50.284;19.310;2022-11-20T01:26:57;105.80;;;43.35;;
17818;SDS011;9034;50.284;19.310;2022-11-20T01:28:01;109.55;;;40.72;;
17818;SDS011;9034;50.284;19.310;2022-11-20T01:29:04;98.90;;;39.83;;
17818;SDS011;9034;50.284;19.310;2022-11-20T01:30:09;90.00;;;39.70;;
17818;SDS011;9034;50.284;19.310;2022-11-20T01:31:13;102.90;;;40.50;;
17818;SDS011;9034;50.284;19.310;2022-11-20T01:32:17;111.65;;;44.95;;
17818;SDS011;9034;50.284;19.310;2022-11-20T01:33:20;111.07;;;46.17;;
17818;SDS011;9034;50.284;19.310;2022-11-20T01:34:24;98.70;;;39.53;;
17818;SDS011;9034;50.284;19.310;2022-11-20T01:35:28;99.70;;;41.47;;
17818;SDS011;9034;50.284;19.310;2022-11-20T01:36:32;105.68;;;41.22;;
17818;SDS011;9034;50.284;19.310;2022-11-20T01:37:36;100.43;;;40.20;;
17818;SDS011;9034;50.284;19.310;2022-11-20T01:38:40;101.28;;;43.47;;
17818;SDS011;9034;50.284;19.310;2022-11-20T01:39:43;99.45;;;41.78;;
17818;SDS011;9034;50.284;19.310;2022-11-20T01:40:53;95.00;;;41.17;;
17818;SDS011;9034;50.284;19.310;2022-11-20T01:41:56;104.40;;;40.28;;
17818;SDS011;9034;50.284;19.310;2022-11-20T01:43:17;109.53;;;41.65;;
17818;SDS011;9034;50.284;19.310;2022-11-20T01:46:00;102.93;;;40.97;;
17818;SDS011;9034;50.284;19.310;2022-11-20T01:47:05;89.93;;;39.92;;
17818;SDS011;9034;50.284;19.310;2022-11-20T01:48:10;108.40;;;44.38;;
17818;SDS011;9034;50.284;19.310;2022-11-20T01:49:15;99.32;;;42.25;;
17818;SDS011;9034;50.284;19.310;2022-11-20T01:50:21;110.70;;;41.40;;
17818;SDS011;9034;50.284;19.310;2022-11-20T01:51:29;91.28;;;39.58;;
17818;SDS011;9034;50.284;19.310;2022-11-20T01:52:34;109.63;;;43.40;;
17818;SDS011;9034;50.284;19.310;2022-11-20T01:53:41;101.47;;;44.10;;
17818;SDS011;9034;50.284;19.310;2022-11-20T01:54:46;96.07;;;40.63;;
17818;SDS011;9034;50.284;19.310;2022-11-20T01:55:52;98.10;;;41.00;;
17818;SDS011;9034;50.284;19.310;2022-11-20T01:56:56;101.38;;;42.85;;
17818;SDS011;9034;50.284;19.310;2022-11-20T01:58:01;106.78;;;44.45;;
17818;SDS011;9034;50.284;19.310;2022-11-20T01:59:04;99.28;;;41.05;;
17818;SDS011;9034;50.284;19.310;2022-11-20T02:00:10;101.18;;;42.53;;
17818;SDS011;9034;50.284;19.310;2022-11-20T02:01:14;98.60;;;39.83;;
17818;SDS011;9034;50.284;19.310;2022-11-20T02:02:18;91.22;;;38.20;;
17818;SDS011;9034;50.284;19.310;2022-11-20T02:03:21;98.82;;;42.30;;
17818;SDS011;9034;50.284;19.310;2022-11-20T02:04:25;99.50;;;41.20;;
17818;SDS011;9034;50.284;19.310;2022-11-20T02:05:28;102.47;;;41.47;;
17818;SDS011;9034;50.284;19.310;2022-11-20T02:06:39;100.85;;;42.08;;
17818;SDS011;9034;50.284;19.310;2022-11-20T02:07:46;101.90;;;42.00;;
17818;SDS011;9034;50.284;19.310;2022-11-20T02:08:50;97.82;;;40.55;;
17818;SDS011;9034;50.284;19.310;2022-11-20T02:09:54;87.68;;;39.72;;
17818;SDS011;9034;50.284;19.310;2022-11-20T02:10:59;83.43;;;35.95;;
17818;SDS011;9034;50.284;19.310;2022-11-20T02:12:03;79.53;;;37.92;;
17818;SDS011;9034;50.284;19.310;2022-11-20T02:13:06;79.93;;;36.95;;
17818;SDS011;9034;50.284;19.310;2022-11-20T02:14:24;86.43;;;37.03;;
17818;SDS011;9034;50.284;19.310;2022-11-20T02:15:28;86.43;;;37.05;;
17818;SDS011;9034;50.284;19.310;2022-11-20T02:16:32;90.55;;;37.33;;
17818;SDS011;9034;50.284;19.310;2022-11-20T02:17:38;86.10;;;36.50;;
17818;SDS011;9034;50.284;19.310;2022-11-20T02:18:41;80.60;;;36.42;;
17818;SDS011;9034;50.284;19.310;2022-11-20T02:19:45;82.00;;;35.03;;
17818;SDS011;9034;50.284;19.310;2022-11-20T02:20:48;75.13;;;34.97;;
17818;SDS011;9034;50.284;19.310;2022-11-20T02:21:58;81.38;;;35.50;;
17818;SDS011;9034;50.284;19.310;2022-11-20T02:23:03;85.78;;;34.85;;
17818;SDS011;9034;50.284;19.310;2022-11-20T02:24:12;74.32;;;34.92;;
17818;SDS011;9034;50.284;19.310;2022-11-20T02:25:17;79.65;;;34.75;;
17818;SDS011;9034;50.284;19.310;2022-11-20T02:26:21;86.88;;;36.92;;
17818;SDS011;9034;50.284;19.310;2022-11-20T02:27:25;72.63;;;34.45;;
17818;SDS011;9034;50.284;19.310;2022-11-20T02:28:28;80.47;;;36.13;;
17818;SDS011;9034;50.284;19.310;2022-11-20T02:29:34;84.63;;;37.08;;
17818;SDS011;9034;50.284;19.310;2022-11-20T02:30:39;83.80;;;35.83;;
17818;SDS011;9034;50.284;19.310;2022-11-20T02:31:42;75.10;;;35.08;;
17818;SDS011;9034;50.284;19.310;2022-11-20T02:32:45;82.25;;;33.10;;
17818;SDS011;9034;50.284;19.310;2022-11-20T02:33:53;90.03;;;35.60;;
17818;SDS011;9034;50.284;19.310;2022-11-20T02:34:57;82.97;;;36.13;;
17818;SDS011;9034;50.284;19.310;2022-11-20T02:36:01;84.18;;;35.33;;
17818;SDS011;9034;50.284;19.310;2022-11-20T02:37:04;81.32;;;36.47;;
17818;SDS011;9034;50.284;19.310;2022-11-20T02:38:07;94.30;;;36.95;;
17818;SDS011;9034;50.284;19.310;2022-11-20T02:39:11;88.30;;;36.88;;
17818;SDS011;9034;50.284;19.310;2022-11-20T02:40:18;79.40;;;35.08;;
17818;SDS011;9034;50.284;19.310;2022-11-20T02:41:21;75.97;;;32.83;;
17818;SDS011;9034;50.284;19.310;2022-11-20T02:42:25;89.15;;;36.97;;
17818;SDS011;9034;50.284;19.310;2022-11-20T02:43:28;79.03;;;33.83;;
17818;SDS011;9034;50.284;19.310;2022-11-20T02:44:32;82.90;;;35.53;;
17818;SDS011;9034;50.284;19.310;2022-11-20T02:45:35;84.93;;;34.13;;
17818;SDS011;9034;50.284;19.310;2022-11-20T02:46:38;95.07;;;39.28;;
17818;SDS011;9034;50.284;19.310;2022-11-20T02:47:42;81.03;;;35.15;;
17818;SDS011;9034;50.284;19.310;2022-11-20T02:48:45;91.45;;;38.22;;
17818;SDS011;9034;50.284;19.310;2022-11-20T02:49:48;80.50;;;35.30;;
17818;SDS011;9034;50.284;19.310;2022-11-20T02:50:51;98.90;;;36.97;;
17818;SDS011;9034;50.284;19.310;2022-11-20T02:51:55;83.57;;;33.78;;
17818;SDS011;9034;50.284;19.310;2022-11-20T02:52:57;93.95;;;39.08;;
17818;SDS011;9034;50.284;19.310;2022-11-20T02:54:01;88.47;;;37.92;;
17818;SDS011;9034;50.284;19.310;2022-11-20T02:55:06;79.18;;;34.33;;
17818;SDS011;9034;50.284;19.310;2022-11-20T02:56:10;99.47;;;40.22;;
17818;SDS011;9034;50.284;19.310;2022-11-20T02:57:13;85.78;;;39.10;;
17818;SDS011;9034;50.284;19.310;2022-11-20T02:58:17;92.18;;;39.83;;
17818;SDS011;9034;50.284;19.310;2022-11-20T02:59:19;97.38;;;39.55;;
17818;SDS011;9034;50.284;19.310;2022-11-20T03:00:24;77.78;;;34.10;;
17818;SDS011;9034;50.284;19.310;2022-11-20T03:01:26;79.88;;;36.40;;
17818;SDS011;9034;50.284;19.310;2022-11-20T03:02:30;83.28;;;36.33;;
17818;SDS011;9034;50.284;19.310;2022-11-20T03:03:33;79.03;;;36.95;;
17818;SDS011;9034;50.284;19.310;2022-11-20T03:04:37;92.55;;;39.03;;
17818;SDS011;9034;50.284;19.310;2022-11-20T03:05:39;80.45;;;35.55;;
17818;SDS011;9034;50.284;19.310;2022-11-20T03:06:43;81.90;;;36.40;;
17818;SDS011;9034;50.284;19.310;2022-11-20T03:07:46;86.03;;;38.10;;
17818;SDS011;9034;50.284;19.310;2022-11-20T03:08:50;88.75;;;36.63;;
17818;SDS011;9034;50.284;19.310;2022-11-20T03:09:52;99.68;;;38.88;;
17818;SDS011;9034;50.284;19.310;2022-11-20T03:11:01;95.75;;;40.33;;
17818;SDS011;9034;50.284;19.310;2022-11-20T03:12:04;81.03;;;36.63;;
17818;SDS011;9034;50.284;19.310;2022-11-20T03:13:09;83.82;;;35.05;;
17818;SDS011;9034;50.284;19.310;2022-11-20T03:14:11;96.47;;;38.92;;
17818;SDS011;9034;50.284;19.310;2022-11-20T03:15:16;87.07;;;36.85;;
17818;SDS011;9034;50.284;19.310;2022-11-20T03:16:20;91.45;;;36.50;;
17818;SDS011;9034;50.284;19.310;2022-11-20T03:17:24;86.65;;;35.60;;
17818;SDS011;9034;50.284;19.310;2022-11-20T03:18:27;81.90;;;36.08;;
17818;SDS011;9034;50.284;19.310;2022-11-20T03:19:31;82.75;;;36.45;;
17818;SDS011;9034;50.284;19.310;2022-11-20T03:20:34;78.68;;;36.28;;
17818;SDS011;9034;50.284;19.310;2022-11-20T03:21:38;89.93;;;38.58;;
17818;SDS011;9034;50.284;19.310;2022-11-20T03:22:41;83.57;;;35.97;;
17818;SDS011;9034;50.284;19.310;2022-11-20T03:23:44;100.20;;;41.60;;
17818;SDS011;9034;50.284;19.310;2022-11-20T03:24:47;105.85;;;42.10;;
17818;SDS011;9034;50.284;19.310;2022-11-20T03:25:51;84.93;;;38.60;;
17818;SDS011;9034;50.284;19.310;2022-11-20T03:26:55;91.53;;;39.78;;
17818;SDS011;9034;50.284;19.310;2022-11-20T03:27:59;103.35;;;42.00;;
17818;SDS011;9034;50.284;19.310;2022-11-20T03:29:03;88.47;;;40.35;;
17818;SDS011;9034;50.284;19.310;2022-11-20T03:30:08;97.95;;;40.72;;
17818;SDS011;9034;50.284;19.310;2022-11-20T03:31:12;86.85;;;38.42;;
17818;SDS011;9034;50.284;19.310;2022-11-20T03:32:17;93.88;;;37.33;;
17818;SDS011;9034;50.284;19.310;2022-11-20T03:33:19;88.28;;;38.75;;
17818;SDS011;9034;50.284;19.310;2022-11-20T03:34:23;82.50;;;34.92;;
17818;SDS011;9034;50.284;19.310;2022-11-20T03:35:26;77.68;;;33.42;;
17818;SDS011;9034;50.284;19.310;2022-11-20T03:36:30;81.28;;;35.05;;
17818;SDS011;9034;50.284;19.310;2022-11-20T03:37:32;88.60;;;36.85;;
17818;SDS011;9034;50.284;19.310;2022-11-20T03:38:36;90.30;;;37.55;;
17818;SDS011;9034;50.284;19.310;2022-11-20T03:39:39;94.35;;;38.40;;
17818;SDS011;9034;50.284;19.310;2022-11-20T03:40:43;99.43;;;39.13;;
17818;SDS011;9034;50.284;19.310;2022-11-20T03:41:45;101.30;;;41.20;;
17818;SDS011;9034;50.284;19.310;2022-11-20T03:42:52;87.82;;;38.92;;
17818;SDS011;9034;50.284;19.310;2022-11-20T03:43:55;96.10;;;40.65;;
17818;SDS011;9034;50.284;19.310;2022-11-20T03:45:00;84.70;;;36.58;;
17818;SDS011;9034;50.284;19.310;2022-11-20T03:46:03;95.95;;;37.42;;
17818;SDS011;9034;50.284;19.310;2022-11-20T03:47:07;95.65;;;37.92;;
17818;SDS011;9034;50.284;19.310;2022-11-20T03:48:10;114.40;;;43.05;;
17818;SDS011;9034;50.284;19.310;2022-11-20T03:49:13;104.53;;;42.78;;
17818;SDS011;9034;50.284;19.310;2022-11-20T03:50:17;103.88;;;41.53;;
17818;SDS011;9034;50.284;19.310;2022-11-20T03:51:20;97.03;;;38.40;;
17818;SDS011;9034;50.284;19.310;2022-11-20T03:52:25;101.47;;;40.17;;
17818;SDS011;9034;50.284;19.310;2022-11-20T03:53:27;101.15;;;41.92;;
17818;SDS011;9034;50.284;19.310;2022-11-20T03:54:31;102.55;;;42.45;;
17818;SDS011;9034;50.284;19.310;2022-11-20T03:55:34;101.50;;;41.17;;
17818;SDS011;9034;50.284;19.310;2022-11-20T03:56:38;92.20;;;39.83;;
17818;SDS011;9034;50.284;19.310;2022-11-20T03:57:41;93.38;;;41.33;;
17818;SDS011;9034;50.284;19.310;2022-11-20T03:58:46;100.13;;;42.95;;
17818;SDS011;9034;50.284;19.310;2022-11-20T03:59:49;102.35;;;42.70;;
17818;SDS011;9034;50.284;19.310;2022-11-20T04:00:52;105.65;;;42.10;;
17818;SDS011;9034;50.284;19.310;2022-11-20T04:01:55;93.63;;;39.97;;
17818;SDS011;9034;50.284;19.310;2022-11-20T04:02:59;112.38;;;45.17;;
17818;SDS011;9034;50.284;19.310;2022-11-20T04:04:02;93.82;;;38.10;;
17818;SDS011;9034;50.284;19.310;2022-11-20T04:05:06;116.90;;;45.50;;
17818;SDS011;9034;50.284;19.310;2022-11-20T04:06:11;91.70;;;38.33;;
17818;SDS011;9034;50.284;19.310;2022-11-20T04:07:15;114.75;;;44.00;;
17818;SDS011;9034;50.284;19.310;2022-11-20T04:08:18;105.05;;;42.58;;
17818;SDS011;9034;50.284;19.310;2022-11-20T04:09:22;110.95;;;43.42;;
17818;SDS011;9034;50.284;19.310;2022-11-20T04:10:25;108.47;;;43.13;;
17818;SDS011;9034;50.284;19.310;2022-11-20T04:11:29;104.13;;;42.83;;
17818;SDS011;9034;50.284;19.310;2022-11-20T04:12:33;110.43;;;43.03;;
17818;SDS011;9034;50.284;19.310;2022-11-20T04:13:36;99.88;;;42.33;;
17818;SDS011;9034;50.284;19.310;2022-11-20T04:14:41;98.35;;;39.17;;
17818;SDS011;9034;50.284;19.310;2022-11-20T04:15:44;87.78;;;37.42;;
17818;SDS011;9034;50.284;19.310;2022-11-20T04:16:48;108.20;;;41.97;;
17818;SDS011;9034;50.284;19.310;2022-11-20T04:17:50;93.10;;;39.13;;
17818;SDS011;9034;50.284;19.310;2022-11-20T04:18:54;113.10;;;42.83;;
17818;SDS011;9034;50.284;19.310;2022-11-20T04:19:58;94.53;;;38.83;;
17818;SDS011;9034;50.284;19.310;2022-11-20T04:21:02;97.00;;;39.60;;
17818;SDS011;9034;50.284;19.310;2022-11-20T04:22:05;95.28;;;39.55;;
17818;SDS011;9034;50.284;19.310;2022-11-20T04:23:09;89.95;;;36.67;;
17818;SDS011;9034;50.284;19.310;2022-11-20T04:24:11;103.88;;;40.28;;
17818;SDS011;9034;50.284;19.310;2022-11-20T04:25:15;98.40;;;39.75;;
17818;SDS011;9034;50.284;19.310;2022-11-20T04:26:18;92.80;;;39.47;;
17818;SDS011;9034;50.284;19.310;2022-11-20T04:27:22;97.07;;;35.90;;
17818;SDS011;9034;50.284;19.310;2022-11-20T04:28:25;103.60;;;43.10;;
17818;SDS011;9034;50.284;19.310;2022-11-20T04:29:28;107.97;;;41.63;;
17818;SDS011;9034;50.284;19.310;2022-11-20T04:30:33;97.10;;;40.33;;
17818;SDS011;9034;50.284;19.310;2022-11-20T04:31:36;96.90;;;39.72;;
17818;SDS011;9034;50.284;19.310;2022-11-20T04:32:40;102.35;;;40.42;;
17818;SDS011;9034;50.284;19.310;2022-11-20T04:33:42;110.70;;;41.70;;
17818;SDS011;9034;50.284;19.310;2022-11-20T04:34:46;103.03;;;40.45;;
17818;SDS011;9034;50.284;19.310;2022-11-20T04:35:49;118.15;;;43.00;;
17818;SDS011;9034;50.284;19.310;2022-11-20T04:36:53;117.82;;;41.40;;
17818;SDS011;9034;50.284;19.310;2022-11-20T04:37:56;117.70;;;40.75;;
17818;SDS011;9034;50.284;19.310;2022-11-20T04:39:00;124.10;;;46.63;;
17818;SDS011;9034;50.284;19.310;2022-11-20T04:40:05;113.88;;;44.65;;
17818;SDS011;9034;50.284;19.310;2022-11-20T04:41:11;122.72;;;46.63;;
17818;SDS011;9034;50.284;19.310;2022-11-20T04:42:16;126.28;;;48.10;;
17818;SDS011;9034;50.284;19.310;2022-11-20T04:43:32;139.18;;;46.35;;
17818;SDS011;9034;50.284;19.310;2022-11-20T04:44:35;122.95;;;44.92;;
17818;SDS011;9034;50.284;19.310;2022-11-20T04:45:40;109.93;;;40.65;;
17818;SDS011;9034;50.284;19.310;2022-11-20T04:46:43;115.20;;;43.67;;
17818;SDS011;9034;50.284;19.310;2022-11-20T04:47:47;103.07;;;41.25;;
17818;SDS011;9034;50.284;19.310;2022-11-20T04:48:49;116.70;;;42.28;;
17818;SDS011;9034;50.284;19.310;2022-11-20T04:49:53;103.53;;;42.97;;
17818;SDS011;9034;50.284;19.310;2022-11-20T04:50:56;113.43;;;43.13;;
17818;SDS011;9034;50.284;19.310;2022-11-20T04:52:00;121.95;;;42.65;;
17818;SDS011;9034;50.284;19.310;2022-11-20T04:53:02;115.80;;;43.53;;
17818;SDS011;9034;50.284;19.310;2022-11-20T04:54:06;122.07;;;42.15;;
17818;SDS011;9034;50.284;19.310;2022-11-20T04:55:09;111.90;;;42.05;;
17818;SDS011;9034;50.284;19.310;2022-11-20T04:56:13;109.22;;;41.00;;
17818;SDS011;9034;50.284;19.310;2022-11-20T04:57:16;113.25;;;41.45;;
17818;SDS011;9034;50.284;19.310;2022-11-20T04:58:19;111.20;;;40.35;;
17818;SDS011;9034;50.284;19.310;2022-11-20T04:59:22;98.80;;;39.10;;
17818;SDS011;9034;50.284;19.310;2022-11-20T05:00:26;112.30;;;43.78;;
17818;SDS011;9034;50.284;19.310;2022-11-20T05:01:30;97.43;;;40.63;;
17818;SDS011;9034;50.284;19.310;2022-11-20T05:02:34;111.07;;;41.05;;
17818;SDS011;9034;50.284;19.310;2022-11-20T05:03:37;130.75;;;44.40;;
17818;SDS011;9034;50.284;19.310;2022-11-20T05:04:43;111.00;;;41.17;;
17818;SDS011;9034;50.284;19.310;2022-11-20T05:05:46;99.55;;;38.30;;
17818;SDS011;9034;50.284;19.310;2022-11-20T05:06:49;88.22;;;36.42;;
17818;SDS011;9034;50.284;19.310;2022-11-20T05:07:52;92.43;;;38.03;;
17818;SDS011;9034;50.284;19.310;2022-11-20T05:08:56;107.57;;;40.50;;
17818;SDS011;9034;50.284;19.310;2022-11-20T05:09:58;85.53;;;35.75;;
17818;SDS011;9034;50.284;19.310;2022-11-20T05:11:02;106.00;;;37.40;;
17818;SDS011;9034;50.284;19.310;2022-11-20T05:12:07;103.90;;;40.00;;
17818;SDS011;9034;50.284;19.310;2022-11-20T05:13:11;86.80;;;35.65;;
17818;SDS011;9034;50.284;19.310;2022-11-20T05:14:13;99.65;;;35.13;;
17818;SDS011;9034;50.284;19.310;2022-11-20T05:15:17;77.60;;;33.78;;
17818;SDS011;9034;50.284;19.310;2022-11-20T05:16:21;80.85;;;32.13;;
17818;SDS011;9034;50.284;19.310;2022-11-20T05:17:27;97.93;;;35.92;;
17818;SDS011;9034;50.284;19.310;2022-11-20T05:18:30;84.68;;;33.90;;
17818;SDS011;9034;50.284;19.310;2022-11-20T05:19:34;82.03;;;33.33;;
17818;SDS011;9034;50.284;19.310;2022-11-20T05:20:37;86.95;;;34.83;;
17818;SDS011;9034;50.284;19.310;2022-11-20T05:21:40;92.97;;;34.28;;
17818;SDS011;9034;50.284;19.310;2022-11-20T05:22:43;90.35;;;36.70;;
17818;SDS011;9034;50.284;19.310;2022-11-20T05:23:48;80.70;;;33.85;;
17818;SDS011;9034;50.284;19.310;2022-11-20T05:24:51;88.60;;;35.13;;
17818;SDS011;9034;50.284;19.310;2022-11-20T05:25:54;80.60;;;33.67;;
17818;SDS011;9034;50.284;19.310;2022-11-20T05:27:00;84.50;;;34.17;;
17818;SDS011;9034;50.284;19.310;2022-11-20T05:28:03;78.03;;;31.92;;
17818;SDS011;9034;50.284;19.310;2022-11-20T05:29:06;73.78;;;32.97;;
17818;SDS011;9034;50.284;19.310;2022-11-20T05:30:13;73.38;;;33.00;;
17818;SDS011;9034;50.284;19.310;2022-11-20T05:31:16;75.90;;;31.63;;
17818;SDS011;9034;50.284;19.310;2022-11-20T05:32:29;75.18;;;32.08;;
17818;SDS011;9034;50.284;19.310;2022-11-20T05:33:32;77.93;;;31.35;;
17818;SDS011;9034;50.284;19.310;2022-11-20T05:34:36;77.28;;;31.17;;
17818;SDS011;9034;50.284;19.310;2022-11-20T05:35:39;68.05;;;31.67;;
17818;SDS011;9034;50.284;19.310;2022-11-20T05:36:43;71.45;;;31.05;;
17818;SDS011;9034;50.284;19.310;2022-11-20T05:37:45;73.20;;;30.98;;
17818;SDS011;9034;50.284;19.310;2022-11-20T05:38:49;67.40;;;29.40;;
17818;SDS011;9034;50.284;19.310;2022-11-20T05:39:55;72.05;;;30.63;;
17818;SDS011;9034;50.284;19.310;2022-11-20T05:41:05;77.22;;;32.60;;
17818;SDS011;9034;50.284;19.310;2022-11-20T05:42:08;68.65;;;29.92;;
17818;SDS011;9034;50.284;19.310;2022-11-20T05:43:31;70.53;;;28.17;;
17818;SDS011;9034;50.284;19.310;2022-11-20T05:44:35;67.18;;;30.65;;
17818;SDS011;9034;50.284;19.310;2022-11-20T05:45:38;65.07;;;29.75;;
17818;SDS011;9034;50.284;19.310;2022-11-20T05:46:41;62.92;;;27.70;;
17818;SDS011;9034;50.284;19.310;2022-11-20T05:47:45;76.20;;;30.65;;
17818;SDS011;9034;50.284;19.310;2022-11-20T05:48:49;70.38;;;31.98;;
17818;SDS011;9034;50.284;19.310;2022-11-20T05:49:52;76.88;;;30.02;;
17818;SDS011;9034;50.284;19.310;2022-11-20T05:50:56;75.43;;;29.45;;
17818;SDS011;9034;50.284;19.310;2022-11-20T05:52:00;69.80;;;29.73;;
17818;SDS011;9034;50.284;19.310;2022-11-20T05:53:04;71.13;;;28.27;;
17818;SDS011;9034;50.284;19.310;2022-11-20T05:54:07;69.22;;;30.17;;
17818;SDS011;9034;50.284;19.310;2022-11-20T05:55:10;62.42;;;29.75;;
17818;SDS011;9034;50.284;19.310;2022-11-20T05:56:14;67.50;;;30.40;;
17818;SDS011;9034;50.284;19.310;2022-11-20T05:57:18;68.63;;;27.70;;
17818;SDS011;9034;50.284;19.310;2022-11-20T05:58:21;64.93;;;28.25;;
17818;SDS011;9034;50.284;19.310;2022-11-20T05:59:25;64.65;;;28.35;;
17818;SDS011;9034;50.284;19.310;2022-11-20T06:00:28;65.45;;;28.05;;
17818;SDS011;9034;50.284;19.310;2022-11-20T06:01:31;76.20;;;32.13;;
17818;SDS011;9034;50.284;19.310;2022-11-20T06:02:34;60.42;;;28.38;;
17818;SDS011;9034;50.284;19.310;2022-11-20T06:03:40;64.38;;;28.17;;
17818;SDS011;9034;50.284;19.310;2022-11-20T06:04:44;65.22;;;28.63;;
17818;SDS011;9034;50.284;19.310;2022-11-20T06:05:48;68.90;;;33.58;;
17818;SDS011;9034;50.284;19.310;2022-11-20T06:06:50;67.47;;;31.08;;
17818;SDS011;9034;50.284;19.310;2022-11-20T06:07:54;73.00;;;32.55;;
17818;SDS011;9034;50.284;19.310;2022-11-20T06:08:57;77.38;;;31.38;;
17818;SDS011;9034;50.284;19.310;2022-11-20T06:10:01;75.95;;;33.45;;
17818;SDS011;9034;50.284;19.310;2022-11-20T06:11:04;76.65;;;32.53;;
17818;SDS011;9034;50.284;19.310;2022-11-20T06:12:09;68.53;;;31.42;;
17818;SDS011;9034;50.284;19.310;2022-11-20T06:13:11;72.63;;;31.65;;
17818;SDS011;9034;50.284;19.310;2022-11-20T06:14:15;73.18;;;32.20;;
17818;SDS011;9034;50.284;19.310;2022-11-20T06:15:18;72.88;;;32.20;;
17818;SDS011;9034;50.284;19.310;2022-11-20T06:16:22;73.68;;;32.08;;